sensor_id;sensor_type;location;lat;lon;timestamp;temperature;humidity
23839;DHT22;12100;44.384;20.272;2022-08-07T00:00:55;21.30;74.80
23839;DHT22;12100;44.384;20.272;2022-08-07T00:03:21;21.40;74.40
23839;DHT22;12100;44.384;20.272;2022-08-07T00:05:49;21.50;73.70
23839;DHT22;12100;44.384;20.272;2022-08-07T00:08:17;21.50;73.40
23839;DHT22;12100;44.384;20.272;2022-08-07T00:10:44;21.50;73.30
23839;DHT22;12100;44.384;20.272;2022-08-07T00:13:10;21.50;74.60
23839;DHT22;12100;44.384;20.272;2022-08-07T00:15:36;21.40;75.30
23839;DHT22;12100;44.384;20.272;2022-08-07T00:18:03;21.40;74.80
23839;DHT22;12100;44.384;20.272;2022-08-07T00:20:29;21.30;74.60
23839;DHT22;12100;44.384;20.272;2022-08-07T00:22:54;21.10;75.90
23839;DHT22;12100;44.384;20.272;2022-08-07T00:25:20;21.10;75.90
23839;DHT22;12100;44.384;20.272;2022-08-07T00:27:51;20.80;80.50
23839;DHT22;12100;44.384;20.272;2022-08-07T00:30:18;20.80;80.40
23839;DHT22;12100;44.384;20.272;2022-08-07T00:32:48;20.80;79.00
23839;DHT22;12100;44.384;20.272;2022-08-07T00:35:14;20.80;77.50
23839;DHT22;12100;44.384;20.272;2022-08-07T00:37:40;20.80;78.90
23839;DHT22;12100;44.384;20.272;2022-08-07T00:40:06;20.70;80.30
23839;DHT22;12100;44.384;20.272;2022-08-07T00:42:33;20.70;81.60
23839;DHT22;12100;44.384;20.272;2022-08-07T00:44:59;20.70;81.80
23839;DHT22;12100;44.384;20.272;2022-08-07T00:47:25;20.70;81.90
23839;DHT22;12100;44.384;20.272;2022-08-07T00:49:51;20.80;80.80
23839;DHT22;12100;44.384;20.272;2022-08-07T00:52:16;20.80;79.50
23839;DHT22;12100;44.384;20.272;2022-08-07T00:54:42;20.80;79.10
23839;DHT22;12100;44.384;20.272;2022-08-07T00:57:08;20.80;79.00
23839;DHT22;12100;44.384;20.272;2022-08-07T00:59:38;20.80;79.40
23839;DHT22;12100;44.384;20.272;2022-08-07T01:02:05;20.90;79.40
23839;DHT22;12100;44.384;20.272;2022-08-07T01:04:31;20.80;78.20
23839;DHT22;12100;44.384;20.272;2022-08-07T01:06:57;20.80;78.20
23839;DHT22;12100;44.384;20.272;2022-08-07T01:09:24;20.70;80.10
23839;DHT22;12100;44.384;20.272;2022-08-07T01:11:50;20.60;81.10
23839;DHT22;12100;44.384;20.272;2022-08-07T01:14:18;20.70;80.80
23839;DHT22;12100;44.384;20.272;2022-08-07T01:16:44;20.70;79.80
23839;DHT22;12100;44.384;20.272;2022-08-07T01:19:11;20.80;81.20
23839;DHT22;12100;44.384;20.272;2022-08-07T01:21:37;20.70;81.10
23839;DHT22;12100;44.384;20.272;2022-08-07T01:24:03;20.70;81.10
23839;DHT22;12100;44.384;20.272;2022-08-07T01:26:30;20.70;80.50
23839;DHT22;12100;44.384;20.272;2022-08-07T01:28:56;20.70;78.80
23839;DHT22;12100;44.384;20.272;2022-08-07T01:31:22;20.80;78.20
23839;DHT22;12100;44.384;20.272;2022-08-07T01:34:01;20.90;76.70
23839;DHT22;12100;44.384;20.272;2022-08-07T01:36:28;21.10;74.50
23839;DHT22;12100;44.384;20.272;2022-08-07T01:38:55;21.40;72.20
23839;DHT22;12100;44.384;20.272;2022-08-07T01:41:21;21.60;70.90
23839;DHT22;12100;44.384;20.272;2022-08-07T01:43:48;22.00;69.60
23839;DHT22;12100;44.384;20.272;2022-08-07T01:46:15;22.20;69.50
23839;DHT22;12100;44.384;20.272;2022-08-07T01:48:42;22.40;69.40
23839;DHT22;12100;44.384;20.272;2022-08-07T01:51:11;22.50;70.00
23839;DHT22;12100;44.384;20.272;2022-08-07T01:53:41;22.60;70.20
23839;DHT22;12100;44.384;20.272;2022-08-07T01:56:16;22.70;70.40
23839;DHT22;12100;44.384;20.272;2022-08-07T01:58:54;22.80;70.50
23839;DHT22;12100;44.384;20.272;2022-08-07T02:01:26;22.90;70.40
23839;DHT22;12100;44.384;20.272;2022-08-07T02:04:00;22.90;70.10
23839;DHT22;12100;44.384;20.272;2022-08-07T02:06:29;22.90;70.30
23839;DHT22;12100;44.384;20.272;2022-08-07T02:08:59;22.90;70.60
23839;DHT22;12100;44.384;20.272;2022-08-07T02:11:26;22.90;70.90
23839;DHT22;12100;44.384;20.272;2022-08-07T02:13:53;22.90;71.10
23839;DHT22;12100;44.384;20.272;2022-08-07T02:16:22;23.00;71.30
23839;DHT22;12100;44.384;20.272;2022-08-07T02:18:49;23.00;70.90
23839;DHT22;12100;44.384;20.272;2022-08-07T02:21:16;23.00;71.50
23839;DHT22;12100;44.384;20.272;2022-08-07T02:23:42;23.00;71.70
23839;DHT22;12100;44.384;20.272;2022-08-07T02:26:09;23.10;71.90
23839;DHT22;12100;44.384;20.272;2022-08-07T02:28:37;23.00;71.70
23839;DHT22;12100;44.384;20.272;2022-08-07T02:31:05;23.10;72.10
23839;DHT22;12100;44.384;20.272;2022-08-07T02:33:33;23.10;72.20
23839;DHT22;12100;44.384;20.272;2022-08-07T02:36:00;23.00;72.50
23839;DHT22;12100;44.384;20.272;2022-08-07T02:38:28;23.10;73.00
23839;DHT22;12100;44.384;20.272;2022-08-07T02:40:57;23.10;73.30
23839;DHT22;12100;44.384;20.272;2022-08-07T02:43:23;23.10;73.50
23839;DHT22;12100;44.384;20.272;2022-08-07T02:45:52;23.00;73.90
23839;DHT22;12100;44.384;20.272;2022-08-07T02:48:19;23.00;73.80
23839;DHT22;12100;44.384;20.272;2022-08-07T02:50:49;23.00;74.40
23839;DHT22;12100;44.384;20.272;2022-08-07T02:53:23;23.00;74.80
23839;DHT22;12100;44.384;20.272;2022-08-07T02:55:51;22.90;75.40
23839;DHT22;12100;44.384;20.272;2022-08-07T02:58:19;23.00;75.20
23839;DHT22;12100;44.384;20.272;2022-08-07T03:00:49;22.90;75.70
23839;DHT22;12100;44.384;20.272;2022-08-07T03:03:16;23.00;76.40
23839;DHT22;12100;44.384;20.272;2022-08-07T03:05:44;22.90;76.90
23839;DHT22;12100;44.384;20.272;2022-08-07T03:08:11;22.90;77.40
23839;DHT22;12100;44.384;20.272;2022-08-07T03:10:38;22.90;78.10
23839;DHT22;12100;44.384;20.272;2022-08-07T03:13:05;22.90;78.00
23839;DHT22;12100;44.384;20.272;2022-08-07T03:15:31;22.90;78.50
23839;DHT22;12100;44.384;20.272;2022-08-07T03:17:58;22.90;79.30
23839;DHT22;12100;44.384;20.272;2022-08-07T03:20:25;22.90;80.10
23839;DHT22;12100;44.384;20.272;2022-08-07T03:22:52;22.90;80.20
23839;DHT22;12100;44.384;20.272;2022-08-07T03:25:19;22.90;80.60
23839;DHT22;12100;44.384;20.272;2022-08-07T03:27:45;22.90;81.10
23839;DHT22;12100;44.384;20.272;2022-08-07T03:30:13;22.90;81.30
23839;DHT22;12100;44.384;20.272;2022-08-07T03:32:41;22.80;82.30
23839;DHT22;12100;44.384;20.272;2022-08-07T03:35:27;22.80;82.50
23839;DHT22;12100;44.384;20.272;2022-08-07T03:37:58;22.80;84.00
23839;DHT22;12100;44.384;20.272;2022-08-07T03:40:26;22.80;83.90
23839;DHT22;12100;44.384;20.272;2022-08-07T03:42:53;22.80;84.00
23839;DHT22;12100;44.384;20.272;2022-08-07T03:45:22;22.90;84.50
23839;DHT22;12100;44.384;20.272;2022-08-07T03:47:49;22.90;84.90
23839;DHT22;12100;44.384;20.272;2022-08-07T03:50:17;22.90;85.70
23839;DHT22;12100;44.384;20.272;2022-08-07T03:52:45;22.90;85.60
23839;DHT22;12100;44.384;20.272;2022-08-07T03:55:12;23.00;86.00
23839;DHT22;12100;44.384;20.272;2022-08-07T03:57:38;23.10;86.10
23839;DHT22;12100;44.384;20.272;2022-08-07T04:00:06;23.10;86.00
23839;DHT22;12100;44.384;20.272;2022-08-07T04:02:32;23.20;86.00
23839;DHT22;12100;44.384;20.272;2022-08-07T04:04:58;23.40;85.50
23839;DHT22;12100;44.384;20.272;2022-08-07T04:07:24;23.90;83.40
23839;DHT22;12100;44.384;20.272;2022-08-07T04:09:50;24.40;81.30
23839;DHT22;12100;44.384;20.272;2022-08-07T04:12:16;24.90;78.90
23839;DHT22;12100;44.384;20.272;2022-08-07T04:14:43;25.30;77.00
23839;DHT22;12100;44.384;20.272;2022-08-07T04:17:09;25.80;75.60
23839;DHT22;12100;44.384;20.272;2022-08-07T04:19:40;26.40;73.20
23839;DHT22;12100;44.384;20.272;2022-08-07T04:22:06;26.40;72.80
23839;DHT22;12100;44.384;20.272;2022-08-07T04:24:33;27.00;71.10
23839;DHT22;12100;44.384;20.272;2022-08-07T04:27:00;27.60;69.10
23839;DHT22;12100;44.384;20.272;2022-08-07T04:29:28;28.20;66.60
23839;DHT22;12100;44.384;20.272;2022-08-07T04:31:55;28.10;66.30
23839;DHT22;12100;44.384;20.272;2022-08-07T04:34:22;28.90;64.70
23839;DHT22;12100;44.384;20.272;2022-08-07T04:36:48;28.90;64.10
23839;DHT22;12100;44.384;20.272;2022-08-07T04:39:14;29.00;64.10
23839;DHT22;12100;44.384;20.272;2022-08-07T04:41:40;29.50;62.50
23839;DHT22;12100;44.384;20.272;2022-08-07T04:44:06;29.70;61.20
23839;DHT22;12100;44.384;20.272;2022-08-07T04:52:04;30.40;58.60
23839;DHT22;12100;44.384;20.272;2022-08-07T04:54:37;30.60;59.20
23839;DHT22;12100;44.384;20.272;2022-08-07T05:02:19;31.30;57.10
23839;DHT22;12100;44.384;20.272;2022-08-07T05:07:47;32.10;55.20
23839;DHT22;12100;44.384;20.272;2022-08-07T05:10:27;32.40;54.10
23839;DHT22;12100;44.384;20.272;2022-08-07T05:13:07;33.30;52.50
23839;DHT22;12100;44.384;20.272;2022-08-07T05:15:39;32.10;52.60
23839;DHT22;12100;44.384;20.272;2022-08-07T05:18:08;32.40;53.90
23839;DHT22;12100;44.384;20.272;2022-08-07T05:20:40;33.00;52.70
23839;DHT22;12100;44.384;20.272;2022-08-07T05:23:10;33.10;53.00
23839;DHT22;12100;44.384;20.272;2022-08-07T05:25:39;33.40;52.10
23839;DHT22;12100;44.384;20.272;2022-08-07T05:28:06;33.40;51.60
23839;DHT22;12100;44.384;20.272;2022-08-07T05:30:33;34.00;50.80
23839;DHT22;12100;44.384;20.272;2022-08-07T05:33:01;34.60;49.50
23839;DHT22;12100;44.384;20.272;2022-08-07T05:35:31;34.60;48.90
23839;DHT22;12100;44.384;20.272;2022-08-07T05:37:57;34.60;49.00
23839;DHT22;12100;44.384;20.272;2022-08-07T05:40:23;35.00;48.50
23839;DHT22;12100;44.384;20.272;2022-08-07T05:42:49;35.50;47.40
23839;DHT22;12100;44.384;20.272;2022-08-07T05:45:15;36.10;46.90
23839;DHT22;12100;44.384;20.272;2022-08-07T05:47:42;35.70;46.90
23839;DHT22;12100;44.384;20.272;2022-08-07T05:50:08;35.90;46.90
23839;DHT22;12100;44.384;20.272;2022-08-07T05:55:01;36.30;46.00
23839;DHT22;12100;44.384;20.272;2022-08-07T05:57:28;36.30;45.70
23839;DHT22;12100;44.384;20.272;2022-08-07T05:59:55;35.50;47.40
23839;DHT22;12100;44.384;20.272;2022-08-07T06:02:21;36.40;45.30
23839;DHT22;12100;44.384;20.272;2022-08-07T06:04:52;36.10;46.00
23839;DHT22;12100;44.384;20.272;2022-08-07T06:07:19;35.90;46.10
23839;DHT22;12100;44.384;20.272;2022-08-07T06:09:46;35.90;46.00
23839;DHT22;12100;44.384;20.272;2022-08-07T06:12:13;36.00;45.30
23839;DHT22;12100;44.384;20.272;2022-08-07T06:14:40;36.10;45.50
23839;DHT22;12100;44.384;20.272;2022-08-07T06:17:07;37.70;43.70
23839;DHT22;12100;44.384;20.272;2022-08-07T06:19:34;36.90;44.10
23839;DHT22;12100;44.384;20.272;2022-08-07T06:22:01;36.90;43.50
23839;DHT22;12100;44.384;20.272;2022-08-07T06:24:28;36.80;44.10
23839;DHT22;12100;44.384;20.272;2022-08-07T06:26:54;37.70;43.00
23839;DHT22;12100;44.384;20.272;2022-08-07T06:29:26;37.90;43.00
23839;DHT22;12100;44.384;20.272;2022-08-07T06:31:51;38.90;41.50
23839;DHT22;12100;44.384;20.272;2022-08-07T06:34:17;39.40;40.30
23839;DHT22;12100;44.384;20.272;2022-08-07T06:36:43;40.00;40.00
23839;DHT22;12100;44.384;20.272;2022-08-07T06:39:09;38.80;40.50
23839;DHT22;12100;44.384;20.272;2022-08-07T06:41:44;38.00;40.60
23839;DHT22;12100;44.384;20.272;2022-08-07T06:44:12;36.70;43.00
23839;DHT22;12100;44.384;20.272;2022-08-07T06:46:39;35.50;45.50
23839;DHT22;12100;44.384;20.272;2022-08-07T06:49:05;35.30;46.90
23839;DHT22;12100;44.384;20.272;2022-08-07T06:51:33;36.30;45.70
23839;DHT22;12100;44.384;20.272;2022-08-07T06:54:02;38.00;42.70
23839;DHT22;12100;44.384;20.272;2022-08-07T06:56:30;38.90;40.40
23839;DHT22;12100;44.384;20.272;2022-08-07T06:59:20;37.40;41.80
23839;DHT22;12100;44.384;20.272;2022-08-07T07:01:47;38.40;41.30
23839;DHT22;12100;44.384;20.272;2022-08-07T07:04:14;39.00;40.40
23839;DHT22;12100;44.384;20.272;2022-08-07T07:06:40;39.40;39.90
23839;DHT22;12100;44.384;20.272;2022-08-07T07:09:32;40.10;38.90
23839;DHT22;12100;44.384;20.272;2022-08-07T07:17:42;38.60;40.50
23839;DHT22;12100;44.384;20.272;2022-08-07T07:20:16;37.40;42.20
23839;DHT22;12100;44.384;20.272;2022-08-07T07:22:43;37.70;42.40
23839;DHT22;12100;44.384;20.272;2022-08-07T07:25:11;38.00;41.50
23839;DHT22;12100;44.384;20.272;2022-08-07T07:27:41;37.50;40.90
23839;DHT22;12100;44.384;20.272;2022-08-07T07:30:10;37.20;42.20
23839;DHT22;12100;44.384;20.272;2022-08-07T07:32:37;36.50;42.70
23839;DHT22;12100;44.384;20.272;2022-08-07T07:35:06;35.40;45.20
23839;DHT22;12100;44.384;20.272;2022-08-07T07:42:29;34.60;46.20
23839;DHT22;12100;44.384;20.272;2022-08-07T07:44:57;33.30;49.80
23839;DHT22;12100;44.384;20.272;2022-08-07T07:47:24;33.10;50.70
23839;DHT22;12100;44.384;20.272;2022-08-07T07:49:52;33.00;50.50
23839;DHT22;12100;44.384;20.272;2022-08-07T07:54:47;32.90;50.90
23839;DHT22;12100;44.384;20.272;2022-08-07T12:23:15;30.40;55.30
23839;DHT22;12100;44.384;20.272;2022-08-07T12:25:59;35.40;47.40
23839;DHT22;12100;44.384;20.272;2022-08-07T12:33:59;35.50;47.40
23839;DHT22;12100;44.384;20.272;2022-08-07T12:36:26;35.40;47.60
23839;DHT22;12100;44.384;20.272;2022-08-07T12:38:54;35.60;47.00
23839;DHT22;12100;44.384;20.272;2022-08-07T12:41:23;35.20;47.00
23839;DHT22;12100;44.384;20.272;2022-08-07T12:43:51;35.00;48.10
23839;DHT22;12100;44.384;20.272;2022-08-07T12:49:36;35.10;47.60
23839;DHT22;12100;44.384;20.272;2022-08-07T12:52:14;34.90;48.00
23839;DHT22;12100;44.384;20.272;2022-08-07T12:54:56;34.50;48.30
23839;DHT22;12100;44.384;20.272;2022-08-07T12:57:26;34.50;48.90
23839;DHT22;12100;44.384;20.272;2022-08-07T12:59:56;34.60;49.20
23839;DHT22;12100;44.384;20.272;2022-08-07T13:17:03;33.70;50.00
23839;DHT22;12100;44.384;20.272;2022-08-07T13:19:46;33.50;50.50
23839;DHT22;12100;44.384;20.272;2022-08-07T13:25:10;33.50;51.00
23839;DHT22;12100;44.384;20.272;2022-08-07T13:27:41;33.60;50.70
23839;DHT22;12100;44.384;20.272;2022-08-07T13:30:10;33.60;50.80
23839;DHT22;12100;44.384;20.272;2022-08-07T13:33:04;33.40;50.70
23839;DHT22;12100;44.384;20.272;2022-08-07T13:35:46;33.50;50.70
23839;DHT22;12100;44.384;20.272;2022-08-07T13:38:20;33.70;50.50
23839;DHT22;12100;44.384;20.272;2022-08-07T13:43:41;34.00;50.30
23839;DHT22;12100;44.384;20.272;2022-08-07T13:46:09;34.00;49.50
23839;DHT22;12100;44.384;20.272;2022-08-07T13:48:38;34.00;49.90
23839;DHT22;12100;44.384;20.272;2022-08-07T13:51:05;34.10;49.90
23839;DHT22;12100;44.384;20.272;2022-08-07T13:53:38;33.90;49.40
23839;DHT22;12100;44.384;20.272;2022-08-07T13:56:05;33.90;50.40
23839;DHT22;12100;44.384;20.272;2022-08-07T13:58:40;33.90;49.90
23839;DHT22;12100;44.384;20.272;2022-08-07T14:04:07;33.90;49.30
23839;DHT22;12100;44.384;20.272;2022-08-07T14:06:39;34.00;49.70
23839;DHT22;12100;44.384;20.272;2022-08-07T14:09:09;34.00;49.90
23839;DHT22;12100;44.384;20.272;2022-08-07T14:11:49;34.00;49.80
23839;DHT22;12100;44.384;20.272;2022-08-07T14:14:17;34.10;49.40
23839;DHT22;12100;44.384;20.272;2022-08-07T14:16:45;34.10;49.50
23839;DHT22;12100;44.384;20.272;2022-08-07T14:19:36;34.00;49.80
23839;DHT22;12100;44.384;20.272;2022-08-07T14:22:05;34.10;50.10
23839;DHT22;12100;44.384;20.272;2022-08-07T14:24:46;34.20;49.20
23839;DHT22;12100;44.384;20.272;2022-08-07T14:27:13;34.20;49.80
23839;DHT22;12100;44.384;20.272;2022-08-07T14:29:46;34.30;49.20
23839;DHT22;12100;44.384;20.272;2022-08-07T14:32:13;34.10;49.50
23839;DHT22;12100;44.384;20.272;2022-08-07T14:34:43;34.00;49.70
23839;DHT22;12100;44.384;20.272;2022-08-07T14:37:10;33.90;49.50
23839;DHT22;12100;44.384;20.272;2022-08-07T14:39:39;33.80;49.90
23839;DHT22;12100;44.384;20.272;2022-08-07T14:42:08;34.00;49.90
23839;DHT22;12100;44.384;20.272;2022-08-07T14:44:38;33.80;50.10
23839;DHT22;12100;44.384;20.272;2022-08-07T14:47:05;33.80;50.30
23839;DHT22;12100;44.384;20.272;2022-08-07T14:49:33;33.80;49.80
23839;DHT22;12100;44.384;20.272;2022-08-07T14:52:00;33.80;50.20
23839;DHT22;12100;44.384;20.272;2022-08-07T14:54:32;33.60;49.90
23839;DHT22;12100;44.384;20.272;2022-08-07T14:57:00;33.40;50.70
23839;DHT22;12100;44.384;20.272;2022-08-07T14:59:34;33.30;50.40
23839;DHT22;12100;44.384;20.272;2022-08-07T15:02:16;33.10;50.90
23839;DHT22;12100;44.384;20.272;2022-08-07T15:04:44;33.10;51.30
23839;DHT22;12100;44.384;20.272;2022-08-07T15:07:17;33.00;51.50
23839;DHT22;12100;44.384;20.272;2022-08-07T15:09:44;32.70;51.90
23839;DHT22;12100;44.384;20.272;2022-08-07T15:12:13;32.70;52.70
23839;DHT22;12100;44.384;20.272;2022-08-07T15:14:56;32.50;53.00
23839;DHT22;12100;44.384;20.272;2022-08-07T15:17:30;32.20;52.80
23839;DHT22;12100;44.384;20.272;2022-08-07T15:20:04;32.00;53.50
23839;DHT22;12100;44.384;20.272;2022-08-07T15:22:43;31.70;54.40
23839;DHT22;12100;44.384;20.272;2022-08-07T15:25:13;31.60;54.40
23839;DHT22;12100;44.384;20.272;2022-08-07T15:27:43;31.60;54.30
23839;DHT22;12100;44.384;20.272;2022-08-07T15:30:10;31.50;54.40
23839;DHT22;12100;44.384;20.272;2022-08-07T15:32:55;31.50;54.70
23839;DHT22;12100;44.384;20.272;2022-08-07T15:35:24;31.40;54.80
23839;DHT22;12100;44.384;20.272;2022-08-07T15:37:56;31.30;55.00
23839;DHT22;12100;44.384;20.272;2022-08-07T15:40:24;31.20;55.50
23839;DHT22;12100;44.384;20.272;2022-08-07T15:42:56;31.10;55.80
23839;DHT22;12100;44.384;20.272;2022-08-07T15:47:56;30.90;55.90
23839;DHT22;12100;44.384;20.272;2022-08-07T15:50:34;30.80;56.40
23839;DHT22;12100;44.384;20.272;2022-08-07T15:53:08;30.90;56.50
23839;DHT22;12100;44.384;20.272;2022-08-07T15:55:46;30.90;56.40
23839;DHT22;12100;44.384;20.272;2022-08-07T15:58:16;31.10;56.00
23839;DHT22;12100;44.384;20.272;2022-08-07T16:00:44;31.10;56.20
23839;DHT22;12100;44.384;20.272;2022-08-07T16:03:30;31.10;56.00
23839;DHT22;12100;44.384;20.272;2022-08-07T16:06:00;31.20;56.10
23839;DHT22;12100;44.384;20.272;2022-08-07T16:08:28;31.20;55.90
23839;DHT22;12100;44.384;20.272;2022-08-07T16:11:05;31.20;56.30
23839;DHT22;12100;44.384;20.272;2022-08-07T16:13:57;31.20;56.20
23839;DHT22;12100;44.384;20.272;2022-08-07T16:19:17;31.10;55.70
23839;DHT22;12100;44.384;20.272;2022-08-07T16:22:34;31.20;55.80
23839;DHT22;12100;44.384;20.272;2022-08-07T16:25:29;31.10;56.10
23839;DHT22;12100;44.384;20.272;2022-08-07T16:30:54;31.10;56.30
23839;DHT22;12100;44.384;20.272;2022-08-07T16:33:25;30.90;56.10
23839;DHT22;12100;44.384;20.272;2022-08-07T16:47:30;30.50;57.20
23839;DHT22;12100;44.384;20.272;2022-08-07T16:50:18;30.50;57.20
23839;DHT22;12100;44.384;20.272;2022-08-07T16:53:13;30.40;55.10
23839;DHT22;12100;44.384;20.272;2022-08-07T17:01:28;30.20;56.90
23839;DHT22;12100;44.384;20.272;2022-08-07T17:09:25;29.90;58.20
23839;DHT22;12100;44.384;20.272;2022-08-07T17:15:06;29.80;58.60
23839;DHT22;12100;44.384;20.272;2022-08-07T17:26:07;29.50;59.40
23839;DHT22;12100;44.384;20.272;2022-08-07T17:31:21;29.30;59.90
23839;DHT22;12100;44.384;20.272;2022-08-07T17:36:23;29.10;59.70
23839;DHT22;12100;44.384;20.272;2022-08-07T17:39:05;29.00;60.60
23839;DHT22;12100;44.384;20.272;2022-08-07T17:41:45;28.90;61.10
23839;DHT22;12100;44.384;20.272;2022-08-07T17:44:28;28.80;61.20
23839;DHT22;12100;44.384;20.272;2022-08-07T17:46:58;28.70;61.30
23839;DHT22;12100;44.384;20.272;2022-08-07T17:49:46;28.70;61.80
23839;DHT22;12100;44.384;20.272;2022-08-07T17:57:57;28.40;62.80
23839;DHT22;12100;44.384;20.272;2022-08-07T18:00:27;28.30;63.00
23839;DHT22;12100;44.384;20.272;2022-08-07T18:02:54;28.20;63.50
23839;DHT22;12100;44.384;20.272;2022-08-07T18:11:03;28.00;64.20
23839;DHT22;12100;44.384;20.272;2022-08-07T18:13:53;27.90;64.40
23839;DHT22;12100;44.384;20.272;2022-08-07T18:21:43;27.80;64.90
23839;DHT22;12100;44.384;20.272;2022-08-07T18:24:36;27.80;70.30
23839;DHT22;12100;44.384;20.272;2022-08-07T18:30:48;27.60;65.40
23839;DHT22;12100;44.384;20.272;2022-08-07T19:45:45;25.80;77.00
23839;DHT22;12100;44.384;20.272;2022-08-07T19:48:19;25.60;77.30
23839;DHT22;12100;44.384;20.272;2022-08-07T19:50:47;25.60;77.00
23839;DHT22;12100;44.384;20.272;2022-08-07T19:53:14;25.60;77.10
23839;DHT22;12100;44.384;20.272;2022-08-07T19:55:43;25.50;77.60
23839;DHT22;12100;44.384;20.272;2022-08-07T19:58:13;25.50;78.00
23839;DHT22;12100;44.384;20.272;2022-08-07T20:00:40;25.50;78.10
23839;DHT22;12100;44.384;20.272;2022-08-07T20:03:14;25.50;78.30
23839;DHT22;12100;44.384;20.272;2022-08-07T20:05:44;25.50;78.40
23839;DHT22;12100;44.384;20.272;2022-08-07T20:08:13;25.50;78.00
23839;DHT22;12100;44.384;20.272;2022-08-07T20:10:42;25.40;78.40
23839;DHT22;12100;44.384;20.272;2022-08-07T20:13:22;25.40;79.00
23839;DHT22;12100;44.384;20.272;2022-08-07T20:15:50;25.30;80.20
23839;DHT22;12100;44.384;20.272;2022-08-07T20:18:17;25.20;80.50
23839;DHT22;12100;44.384;20.272;2022-08-07T20:20:44;25.20;80.90
23839;DHT22;12100;44.384;20.272;2022-08-07T20:23:12;25.10;81.70
23839;DHT22;12100;44.384;20.272;2022-08-07T20:25:39;25.10;82.30
23839;DHT22;12100;44.384;20.272;2022-08-07T20:28:09;25.10;82.60
23839;DHT22;12100;44.384;20.272;2022-08-07T20:30:37;25.10;82.50
23839;DHT22;12100;44.384;20.272;2022-08-07T20:33:06;25.00;83.80
23839;DHT22;12100;44.384;20.272;2022-08-07T20:35:40;24.90;84.50
23839;DHT22;12100;44.384;20.272;2022-08-07T20:38:10;24.90;85.40
23839;DHT22;12100;44.384;20.272;2022-08-07T20:40:48;24.90;85.10
23839;DHT22;12100;44.384;20.272;2022-08-07T20:43:16;24.90;85.70
23839;DHT22;12100;44.384;20.272;2022-08-07T20:45:48;24.90;85.70
23839;DHT22;12100;44.384;20.272;2022-08-07T20:48:16;24.90;85.80
23839;DHT22;12100;44.384;20.272;2022-08-07T20:50:43;24.90;85.80
23839;DHT22;12100;44.384;20.272;2022-08-07T20:53:11;24.90;86.50
23839;DHT22;12100;44.384;20.272;2022-08-07T20:55:48;24.90;86.50
23839;DHT22;12100;44.384;20.272;2022-08-07T20:58:16;25.00;86.90
23839;DHT22;12100;44.384;20.272;2022-08-07T21:00:46;25.00;87.20
23839;DHT22;12100;44.384;20.272;2022-08-07T21:03:18;25.00;86.20
23839;DHT22;12100;44.384;20.272;2022-08-07T21:06:17;25.00;86.20
23839;DHT22;12100;44.384;20.272;2022-08-07T21:11:15;25.10;85.70
23839;DHT22;12100;44.384;20.272;2022-08-07T21:13:54;25.10;85.70
23839;DHT22;12100;44.384;20.272;2022-08-07T21:16:33;25.20;85.30
23839;DHT22;12100;44.384;20.272;2022-08-07T21:19:01;25.20;84.80
23839;DHT22;12100;44.384;20.272;2022-08-07T21:21:31;25.20;86.10
23839;DHT22;12100;44.384;20.272;2022-08-07T21:24:10;25.30;86.40
23839;DHT22;12100;44.384;20.272;2022-08-07T21:37:07;25.30;84.70
23839;DHT22;12100;44.384;20.272;2022-08-07T21:39:47;25.30;85.40
23839;DHT22;12100;44.384;20.272;2022-08-07T21:42:54;25.20;86.60
23839;DHT22;12100;44.384;20.272;2022-08-07T21:48:05;25.00;89.20
23839;DHT22;12100;44.384;20.272;2022-08-07T21:50:54;25.00;89.60
23839;DHT22;12100;44.384;20.272;2022-08-07T21:53:30;25.00;89.10
23839;DHT22;12100;44.384;20.272;2022-08-07T22:01:35;24.80;90.60
23839;DHT22;12100;44.384;20.272;2022-08-07T22:06:37;24.60;91.20
23839;DHT22;12100;44.384;20.272;2022-08-07T22:09:11;24.60;91.80
23839;DHT22;12100;44.384;20.272;2022-08-07T22:11:42;24.70;91.50
23839;DHT22;12100;44.384;20.272;2022-08-07T22:14:08;24.70;91.40
23839;DHT22;12100;44.384;20.272;2022-08-07T22:16:50;24.80;91.40
23839;DHT22;12100;44.384;20.272;2022-08-07T22:22:55;24.80;91.40
23839;DHT22;12100;44.384;20.272;2022-08-07T22:25:44;24.70;91.80
23839;DHT22;12100;44.384;20.272;2022-08-07T22:28:32;24.80;92.00
23839;DHT22;12100;44.384;20.272;2022-08-07T22:33:42;24.80;91.90
23839;DHT22;12100;44.384;20.272;2022-08-07T22:36:36;24.90;92.00
23839;DHT22;12100;44.384;20.272;2022-08-07T22:42:18;24.90;91.50
23839;DHT22;12100;44.384;20.272;2022-08-07T22:44:48;24.70;92.70
23839;DHT22;12100;44.384;20.272;2022-08-07T23:04:34;24.30;95.10
23839;DHT22;12100;44.384;20.272;2022-08-07T23:12:54;24.30;95.60
23839;DHT22;12100;44.384;20.272;2022-08-07T23:15:53;24.30;95.90
23839;DHT22;12100;44.384;20.272;2022-08-07T23:35:22;24.20;96.20
23839;DHT22;12100;44.384;20.272;2022-08-07T23:40:49;24.20;98.00
23839;DHT22;12100;44.384;20.272;2022-08-07T23:51:24;24.00;99.90
23839;DHT22;12100;44.384;20.272;2022-08-07T23:54:17;23.90;99.90
23839;DHT22;12100;44.384;20.272;2022-08-07T23:57:11;24.00;99.60
